West Point, NE (68788)

11:31 PM CST on February 07, 2016 (GMT -0600)
Skywave Wireless, Inc. | | Change Station
CLOSE
Current Station
Personal Weather Station
Location: West Point, NE
Elevation: 1312 ft
Nearby Weather Stations
Active Advisory: Wind Advisory Active Notice: Public Information Statement

Elev 1312 ft 41.84 °N, 96.71 °W | Updated 8 seconds ago

Overcast
Overcast
31.3 °F
Feels Like 23 °F
N
9.8
Wind Variable Wind from NNW
Gusts 12.3 mph

Today
High -- | Low -- °F
--% Chance of Precip.
Yesterday
High -- | Low -- °F
Precip. -- in
Pressure 30.03 in
Visibility 10.0 miles
Clouds Few 3400 ft
Overcast 5000 ft
Windchill 23 °F
Dew Point 19 °F
Humidity 60%
Rainfall 0.00 in
Snow Depth Not available.
7:33 AM 5:49 PM
Waning Crescent, 0% visible
METAR KTQE 080454Z AUTO 33025G33KT 10SM FEW034 OVC050 M01/M05 A3001 RMK AO2 PK WND 33039/0429 UPB24E42SNE24 SLP167 P0000 T10061050
Pressure 30.03 in
Visibility 10.0 miles
Clouds Few 3400 ft
Overcast 5000 ft
Windchill 23 °F
Dew Point 19 °F
Humidity 60%
Rainfall 0.00 in
Snow Depth Not available.
7:33 AM 5:49 PM
Waning Crescent, 0% visible
METAR KTQE 080454Z AUTO 33025G33KT 10SM FEW034 OVC050 M01/M05 A3001 RMK AO2 PK WND 33039/0429 UPB24E42SNE24 SLP167 P0000 T10061050

10-Day Weather Forecast

Almanac

Astronomy

Feb. 07, 2016 Rise Set
Actual Time
Civil Twilight
Nautical Twilight
Astronomical Twilight
Moon
Length of Visible Light
Length of Day
Tomorrow will be .
, % of the Moon is Illuminated

Today's Extremes

State Highs State Lows

Community

WunderPhotos

Upload Photos

1,891,384 photos uploaded!

WunderBlog® & News

Nearby

Air Quality

  Air Quality AQ Index Pollutant
Not available.

Snow Depth

Station Depth Elevation

Earthquake Activity

City Distance Mag. Time & Date
Minimum magnitude displayed is 2.5.

Coastal Water Temperatures

Place Temperature

Stations

Nearby Weather Stations

Station Location Temp. Windchill Dew Point Humidity Wind Precip. Elev Updated Type
                   

Watches & Warnings

Wind Advisory
Issued: 10:47 PM CST Feb. 7, 2016 – National Weather Service

... Wind Advisory remains in effect until noon CST Monday...

* timing... strong northwest winds will continue through Monday
morning.

* Winds... northwest winds of 30 to 40 mph with gusts to 50 mph.

* Impacts... winds of this magnitude will be hazardous to
motorists... especially those with high profile vehicles. In
addition... snow showers this evening and overnight may lead to
areas of blowing snow. This may create hazardous travel
conditions in parts of the area.

Precautionary/preparedness actions...

A Wind Advisory means that sustained wind speeds between 30 to
39 mph or gusts between 45 to 57 mph are expected. Winds this
strong can make driving difficult... especially for high profile
vehicles. Use extra caution.